createdAt,value
2018-04-12T00:00:13.139Z,9.93
2018-04-12T00:02:42.708Z,9.27
2018-04-12T00:05:12.618Z,10.90
2018-04-12T00:07:42.247Z,10.53
2018-04-12T00:10:11.878Z,13.90
2018-04-12T00:12:41.470Z,10.53
2018-04-12T00:15:11.097Z,12.17
2018-04-12T00:17:40.736Z,13.17
2018-04-12T00:20:10.753Z,14.57
2018-04-12T00:22:40.302Z,14.43
2018-04-12T00:25:10.108Z,14.00
2018-04-12T00:27:39.936Z,12.93
2018-04-12T00:30:09.802Z,14.70
2018-04-12T00:32:39.517Z,14.90
2018-04-12T00:35:09.419Z,14.10
2018-04-12T00:37:39.112Z,13.40
2018-04-12T00:40:09.466Z,16.07
2018-04-12T00:42:39.402Z,13.57
2018-04-12T00:45:09.054Z,15.87
2018-04-12T00:47:39.530Z,15.87
2018-04-12T00:50:09.469Z,17.23
2018-04-12T00:52:39.102Z,14.83
2018-04-12T00:55:09.520Z,18.70
2018-04-12T00:57:39.531Z,15.23
2018-04-12T01:00:09.669Z,15.57
2018-04-12T01:02:40.065Z,17.47
2018-04-12T01:05:09.976Z,19.13
2018-04-12T01:07:40.364Z,16.33
2018-04-12T01:10:10.253Z,18.80
2018-04-12T01:12:40.997Z,18.27
2018-04-12T01:15:11.428Z,17.33
2018-04-12T01:17:41.095Z,20.07
2018-04-12T01:20:11.170Z,16.73
2018-04-12T01:22:40.889Z,20.50
2018-04-12T01:25:10.580Z,18.97
2018-04-12T01:27:41.166Z,18.97
2018-04-12T01:30:10.873Z,22.13
2018-04-12T01:32:40.632Z,22.00
2018-04-12T01:35:10.849Z,19.27
2018-04-12T01:37:40.611Z,24.03
2018-04-12T01:40:10.194Z,19.07
2018-04-12T01:42:40.173Z,21.07
2018-04-12T01:45:10.548Z,21.50
2018-04-12T01:47:41.426Z,24.03
2018-04-12T01:50:11.481Z,20.97
2018-04-12T01:52:42.148Z,24.37
2018-04-12T01:55:11.882Z,23.43
2018-04-12T01:57:41.914Z,21.47
2018-04-12T02:00:12.483Z,23.53
2018-04-12T02:02:42.201Z,25.90
2018-04-12T02:05:12.219Z,24.43
2018-04-12T02:07:41.848Z,26.33
2018-04-12T02:10:11.652Z,27.77
2018-04-12T02:12:41.599Z,24.90
2018-04-12T02:15:11.296Z,26.60
2018-04-12T02:17:40.957Z,31.03
2018-04-12T02:20:10.900Z,27.13
2018-04-12T02:22:40.665Z,25.57
2018-04-12T02:25:11.026Z,28.33
2018-04-12T02:27:40.705Z,29.77
2018-04-12T02:30:10.472Z,35.73
2018-04-12T02:32:40.634Z,31.00
2018-04-12T02:35:10.268Z,33.83
2018-04-12T02:37:40.007Z,30.67
2018-04-12T02:40:10.014Z,35.17
2018-04-12T02:42:40.425Z,35.40
2018-04-12T02:45:10.073Z,35.70
2018-04-12T02:47:39.942Z,39.30
2018-04-12T02:50:09.734Z,32.97
2018-04-12T02:52:39.449Z,35.70
2018-04-12T02:55:09.703Z,30.93
2018-04-12T02:57:39.302Z,36.40
2018-04-12T03:00:09.123Z,41.00
2018-04-12T03:02:39.288Z,38.93
2018-04-12T03:05:08.898Z,33.37
2018-04-12T03:07:38.528Z,41.93
2018-04-12T03:10:08.726Z,39.10
2018-04-12T03:12:38.406Z,39.67
2018-04-12T03:15:08.078Z,43.30
2018-04-12T03:17:38.095Z,40.27
2018-04-12T03:20:07.779Z,44.47
2018-04-12T03:22:37.560Z,36.70
2018-04-12T03:25:07.588Z,41.77
2018-04-12T03:27:37.303Z,40.17
2018-04-12T03:30:06.909Z,39.67
2018-04-12T03:32:37.138Z,39.17
2018-04-12T03:35:07.718Z,40.83
2018-04-12T03:37:37.385Z,40.50
2018-04-12T03:40:08.319Z,38.80
2018-04-12T03:42:38.107Z,36.17
2018-04-12T03:45:07.783Z,39.90
2018-04-12T03:47:37.798Z,39.23
2018-04-12T03:50:07.583Z,38.10
2018-04-12T03:52:37.308Z,34.80
2018-04-12T03:55:06.991Z,42.33
2018-04-12T03:57:36.624Z,39.07
2018-04-12T04:00:07.134Z,40.17
2018-04-12T04:02:37.163Z,37.37
2018-04-12T04:05:07.089Z,40.10
2018-04-12T04:07:38.099Z,39.07
2018-04-12T04:10:08.569Z,45.07
2018-04-12T04:13:12.295Z,39.43
2018-04-12T04:17:58.377Z,43.00
2018-04-12T04:21:07.128Z,43.07
2018-04-12T04:23:37.077Z,46.00
2018-04-12T04:26:07.453Z,41.10
2018-04-12T04:28:36.992Z,38.63
2018-04-12T04:31:07.052Z,38.07
2018-04-12T04:33:36.762Z,38.33
2018-04-12T04:36:06.480Z,36.90
2018-04-12T04:38:36.557Z,38.03
2018-04-12T04:41:06.144Z,36.87
2018-04-12T04:43:36.113Z,37.50
2018-04-12T04:46:15.622Z,42.10
2018-04-12T04:48:45.371Z,39.10
2018-04-12T04:51:15.152Z,44.30
2018-04-12T04:53:46.238Z,40.43
2018-04-12T04:56:16.105Z,38.60
2018-04-12T04:58:46.021Z,42.27
2018-04-12T05:01:18.302Z,40.67
2018-04-12T05:03:48.758Z,38.10
2018-04-12T05:06:18.503Z,39.83
2018-04-12T05:08:48.671Z,38.83
2018-04-12T05:11:19.072Z,42.73
2018-04-12T05:13:49.330Z,35.40
2018-04-12T05:16:22.647Z,39.20
2018-04-12T05:18:58.266Z,40.17
2018-04-12T05:21:28.289Z,47.43
2018-04-12T05:23:58.631Z,45.50
2018-04-12T05:26:29.430Z,39.67
2018-04-12T05:29:09.265Z,40.17
2018-04-12T05:31:39.214Z,46.40
2018-04-12T05:34:09.377Z,38.50
2018-04-12T05:36:39.054Z,38.07
2018-04-12T05:39:08.739Z,37.27
2018-04-12T05:41:39.577Z,37.80
2018-04-12T05:44:10.917Z,31.43
2018-04-12T05:46:42.552Z,36.40
2018-04-12T05:49:12.769Z,34.50
2018-04-12T05:51:42.559Z,35.17
2018-04-12T05:54:12.495Z,31.20
2018-04-12T05:56:42.600Z,32.23
2018-04-12T06:02:12.851Z,33.27
2018-04-12T06:04:43.790Z,28.57
2018-04-12T06:07:18.279Z,31.60
2018-04-12T06:09:50.267Z,29.97
2018-04-12T06:12:20.223Z,35.33
2018-04-12T06:15:54.074Z,28.47
2018-04-12T06:18:23.854Z,28.03
2018-04-12T06:20:56.626Z,27.70
2018-04-12T06:23:27.879Z,30.53
2018-04-12T06:26:00.175Z,29.07
2018-04-12T06:28:30.256Z,30.07
2018-04-12T06:31:01.113Z,28.80
2018-04-12T06:33:30.811Z,27.03
2018-04-12T06:36:01.437Z,34.65
2018-04-12T06:38:31.864Z,29.87
2018-04-12T06:41:02.890Z,29.90
2018-04-12T06:43:33.110Z,30.47
2018-04-12T06:46:02.734Z,30.50
2018-04-12T06:48:33.381Z,30.87
2018-04-12T06:51:04.157Z,28.83
2018-04-12T06:53:33.915Z,31.80
2018-04-12T06:56:04.001Z,32.20
2018-04-12T06:58:34.153Z,30.63
2018-04-12T07:01:03.981Z,32.10
2018-04-12T07:03:33.722Z,31.37
2018-04-12T07:06:04.897Z,29.70
2018-04-12T07:08:36.181Z,33.33
2018-04-12T07:11:05.912Z,24.87
2018-04-12T07:17:07.150Z,31.47
2018-04-12T07:19:37.509Z,26.20
2018-04-12T07:22:08.535Z,30.13
2018-04-12T07:24:38.887Z,27.87
2018-04-12T07:27:11.041Z,26.50
2018-04-12T07:29:41.603Z,29.83
2018-04-12T07:32:12.059Z,32.13
2018-04-12T07:34:42.039Z,30.23
2018-04-12T07:37:12.054Z,31.13
2018-04-12T07:39:42.549Z,33.23
2018-04-12T07:42:12.324Z,31.77
2018-04-12T07:44:42.132Z,43.70
2018-04-12T07:47:12.306Z,40.13
2018-04-12T07:49:42.914Z,39.80
2018-04-12T07:52:12.886Z,41.23
2018-04-12T07:54:43.286Z,39.90
2018-04-12T07:57:13.776Z,40.77
2018-04-12T07:59:43.767Z,46.03
2018-04-12T08:02:14.484Z,43.87
2018-04-12T08:04:45.628Z,45.77
2018-04-12T08:07:15.971Z,54.38
2018-04-12T08:09:46.991Z,46.17
2018-04-12T08:12:18.325Z,47.83
2018-04-12T08:14:49.889Z,51.57
2018-04-12T08:17:20.797Z,53.10
2018-04-12T08:19:51.041Z,52.30
2018-04-12T08:22:21.825Z,56.13
2018-04-12T08:24:52.076Z,56.70
2018-04-12T08:27:23.179Z,58.13
2018-04-12T08:29:53.124Z,65.25
2018-04-12T08:32:23.272Z,63.40
2018-04-12T08:34:54.390Z,53.83
2018-04-12T08:37:24.104Z,52.07
2018-04-12T08:39:54.490Z,57.50
2018-04-12T08:42:24.727Z,61.92
2018-04-12T08:44:55.081Z,57.00
2018-04-12T08:47:24.682Z,52.60
2018-04-12T08:49:55.815Z,55.70
2018-04-12T08:52:25.758Z,56.97
2018-04-12T08:54:56.442Z,59.67
2018-04-12T08:57:27.893Z,63.07
2018-04-12T08:59:57.805Z,55.73
2018-04-12T09:02:27.634Z,63.73
2018-04-12T09:04:57.843Z,54.57
2018-04-12T09:07:27.531Z,57.40
2018-04-12T09:09:57.267Z,60.97
2018-04-12T09:12:27.695Z,63.60
2018-04-12T09:14:57.606Z,68.13
2018-04-12T09:17:27.260Z,58.37
2018-04-12T09:19:57.280Z,66.43
2018-04-12T09:22:27.708Z,67.03
2018-04-12T09:24:57.388Z,66.13
2018-04-12T09:27:27.588Z,62.93
2018-04-12T09:29:57.476Z,65.07
2018-04-12T09:32:27.328Z,65.70
2018-04-12T09:34:57.597Z,65.20
2018-04-12T09:37:28.608Z,63.00
2018-04-12T09:39:58.430Z,62.33
2018-04-12T09:42:28.313Z,66.43
2018-04-12T09:44:58.048Z,69.70
2018-04-12T09:47:29.105Z,67.30
2018-04-12T09:49:58.902Z,65.50
2018-04-12T09:52:28.583Z,67.73
2018-04-12T09:54:58.714Z,69.40
2018-04-12T09:57:29.268Z,68.43
2018-04-12T09:59:59.150Z,67.30
2018-04-12T10:02:31.247Z,69.27
2018-04-12T10:05:00.997Z,68.47
2018-04-12T10:07:37.455Z,64.73
2018-04-12T10:10:08.091Z,70.27
2018-04-12T10:12:38.588Z,62.70
2018-04-12T10:15:08.732Z,65.67
2018-04-12T10:17:39.287Z,65.70
2018-04-12T10:20:10.064Z,59.67
2018-04-12T10:22:39.765Z,58.03
2018-04-12T10:25:11.035Z,59.60
2018-04-12T10:27:41.042Z,62.43
2018-04-12T10:30:11.853Z,54.67
2018-04-12T10:32:42.755Z,57.53
2018-04-12T10:35:14.648Z,56.63
2018-04-12T10:37:44.535Z,56.40
2018-04-12T10:40:14.284Z,59.43
2018-04-12T10:42:46.040Z,56.63
2018-04-12T10:45:16.070Z,59.57
2018-04-12T10:47:46.695Z,54.30
2018-04-12T10:50:16.784Z,54.90
2018-04-12T10:52:46.610Z,61.33
2018-04-12T10:55:17.805Z,58.33
2018-04-12T10:57:50.002Z,52.27
2018-04-12T11:00:24.239Z,55.33
2018-04-12T11:02:54.257Z,53.90
2018-04-12T11:05:25.014Z,57.87
2018-04-12T11:07:54.778Z,60.80
2018-04-12T11:10:27.340Z,56.20
2018-04-12T11:12:57.455Z,51.33
2018-04-12T11:15:28.286Z,51.93
2018-04-12T11:17:58.769Z,59.83
2018-04-12T11:20:29.399Z,50.30
2018-04-12T11:22:59.243Z,56.43
2018-04-12T11:25:29.789Z,55.10
2018-04-12T11:27:59.962Z,53.17
2018-04-12T11:30:29.807Z,51.93
2018-04-12T11:33:01.481Z,54.30
2018-04-12T11:35:34.644Z,54.50
2018-04-12T11:38:06.453Z,58.80
2018-04-12T11:40:41.924Z,64.03
2018-04-12T11:43:15.181Z,54.17
2018-04-12T11:45:51.215Z,58.10
2018-04-12T11:48:21.936Z,56.23
2018-04-12T11:50:52.560Z,62.53
2018-04-12T11:53:22.404Z,47.30
2018-04-12T11:55:52.990Z,50.57
2018-04-12T11:58:23.538Z,53.60
2018-04-12T12:00:54.527Z,51.47
2018-04-12T12:03:26.043Z,52.47
2018-04-12T12:05:56.233Z,49.37
2018-04-12T12:08:26.541Z,49.63
2018-04-12T12:10:59.178Z,55.23
2018-04-12T12:13:30.229Z,57.63
2018-04-12T12:16:00.590Z,52.97
2018-04-12T12:18:30.572Z,55.37
2018-04-12T12:21:01.575Z,56.80
2018-04-12T12:23:31.621Z,55.10
2018-04-12T12:26:02.063Z,53.93
2018-04-12T12:28:32.691Z,54.27
2018-04-12T12:31:03.851Z,59.17
2018-04-12T12:33:35.256Z,55.10
2018-04-12T12:36:06.152Z,59.20
2018-04-12T12:38:36.011Z,55.33
2018-04-12T12:41:06.752Z,54.93
2018-04-12T12:43:36.792Z,51.73
2018-04-12T12:46:08.585Z,50.67
2018-04-12T12:48:40.483Z,50.03
2018-04-12T12:51:17.262Z,49.70
2018-04-12T12:53:48.478Z,40.73
2018-04-12T12:56:18.312Z,43.97
2018-04-12T12:58:48.170Z,32.07
2018-04-12T13:01:18.226Z,20.13
2018-04-12T13:03:48.882Z,17.00
2018-04-12T13:06:18.592Z,17.13
2018-04-12T13:08:49.596Z,19.70
2018-04-12T13:11:19.408Z,18.97
2018-04-12T13:13:49.574Z,16.67
2018-04-12T13:16:20.513Z,16.67
2018-04-12T13:18:50.320Z,17.57
2018-04-12T13:21:21.187Z,19.57
2018-04-12T13:23:51.135Z,20.13
2018-04-12T13:26:21.951Z,21.83
2018-04-12T13:28:52.349Z,16.37
2018-04-12T13:31:22.923Z,19.80
2018-04-12T13:33:52.663Z,21.37
2018-04-12T13:36:22.747Z,17.43
2018-04-12T13:38:52.905Z,16.97
2018-04-12T13:41:23.166Z,16.87
2018-04-12T13:43:52.936Z,17.73
2018-04-12T13:46:22.791Z,13.57
2018-04-12T13:48:55.461Z,12.33
2018-04-12T13:51:25.374Z,11.83
2018-04-12T13:53:56.069Z,16.17
2018-04-12T13:56:27.424Z,11.67
2018-04-12T13:58:57.483Z,13.37
2018-04-12T14:01:27.359Z,13.73
2018-04-12T14:03:57.270Z,13.70
2018-04-12T14:06:28.065Z,16.40
2018-04-12T14:08:58.661Z,13.87
2018-04-12T14:11:29.480Z,12.13
2018-04-12T14:13:59.249Z,9.87
2018-04-12T14:16:29.619Z,12.17
2018-04-12T14:19:00.791Z,12.73
2018-04-12T14:21:31.309Z,10.77
2018-04-12T14:24:01.900Z,11.00
2018-04-12T14:26:31.730Z,10.27
2018-04-12T14:29:02.718Z,9.23
2018-04-12T14:31:33.357Z,13.43
2018-04-12T14:34:03.168Z,11.03
2018-04-12T14:36:34.663Z,10.33
2018-04-12T14:39:08.141Z,12.23
2018-04-12T14:41:38.710Z,10.13
2018-04-12T14:44:09.282Z,13.77
2018-04-12T14:46:39.297Z,12.40
2018-04-12T14:49:09.760Z,11.07
2018-04-12T14:51:39.702Z,13.63
2018-04-12T14:54:10.440Z,11.77
2018-04-12T14:56:41.509Z,12.30
2018-04-12T14:59:11.656Z,13.37
2018-04-12T15:01:41.459Z,16.60
2018-04-12T15:04:11.731Z,16.70
2018-04-12T15:06:42.773Z,13.13
2018-04-12T15:09:13.507Z,13.83
2018-04-12T15:11:44.657Z,11.87
2018-04-12T15:14:15.643Z,16.90
2018-04-12T15:16:45.606Z,12.83
2018-04-12T15:19:15.561Z,12.93
2018-04-12T15:21:45.687Z,10.43
2018-04-12T15:24:15.714Z,11.57
2018-04-12T15:26:49.960Z,14.90
2018-04-12T15:29:19.957Z,10.47
2018-04-12T15:31:50.048Z,13.62
2018-04-12T15:34:20.300Z,15.17
2018-04-12T15:36:50.276Z,11.13
2018-04-12T15:39:20.238Z,11.83
2018-04-12T15:41:51.336Z,11.67
2018-04-12T15:44:23.441Z,12.20
2018-04-12T15:46:56.950Z,15.17
2018-04-12T15:49:28.421Z,13.53
2018-04-12T15:51:59.297Z,14.10
2018-04-12T15:54:31.868Z,12.33
2018-04-12T15:57:02.240Z,11.93
2018-04-12T15:59:33.198Z,9.97
2018-04-12T16:02:05.950Z,13.50
2018-04-12T16:04:36.287Z,13.27
2018-04-12T16:07:06.356Z,13.90
2018-04-12T16:09:38.861Z,12.43
2018-04-12T16:12:08.920Z,11.93
2018-04-12T16:14:39.313Z,11.97
2018-04-12T16:17:09.627Z,14.23
2018-04-12T16:19:39.561Z,13.03
2018-04-12T16:22:09.563Z,11.53
2018-04-12T16:24:39.570Z,12.20
2018-04-12T16:27:09.690Z,15.43
2018-04-12T16:29:39.879Z,11.60
2018-04-12T16:32:10.649Z,9.77
2018-04-12T16:34:40.688Z,13.60
2018-04-12T16:37:11.296Z,10.97
2018-04-12T16:39:41.645Z,9.87
2018-04-12T16:42:11.876Z,11.03
2018-04-12T16:44:41.868Z,13.03
2018-04-12T16:47:13.651Z,8.50
2018-04-12T16:49:44.257Z,12.30
2018-04-12T16:52:14.959Z,9.20
2018-04-12T16:54:45.056Z,9.50
2018-04-12T16:57:15.354Z,10.63
2018-04-12T16:59:45.666Z,10.47
2018-04-12T17:02:16.158Z,10.03
2018-04-12T17:04:46.425Z,11.27
2018-04-12T17:07:17.191Z,9.57
2018-04-12T17:09:47.774Z,10.73
2018-04-12T17:12:18.042Z,12.50
2018-04-12T17:14:48.480Z,10.60
2018-04-12T17:17:19.295Z,9.83
2018-04-12T17:19:49.802Z,10.40
2018-04-12T17:22:20.219Z,11.03
2018-04-12T17:24:50.390Z,10.03
2018-04-12T17:27:21.437Z,11.57
2018-04-12T17:29:52.030Z,10.23
2018-04-12T17:32:22.167Z,10.97
2018-04-12T17:34:52.131Z,10.80
2018-04-12T17:37:23.322Z,10.03
2018-04-12T17:39:54.520Z,10.30
2018-04-12T17:42:24.546Z,10.60
2018-04-12T17:44:55.262Z,9.97
2018-04-12T17:47:27.260Z,10.00
2018-04-12T17:49:57.775Z,12.30
2018-04-12T17:52:29.896Z,10.80
2018-04-12T17:55:01.996Z,10.07
2018-04-12T17:57:32.009Z,9.07
2018-04-12T18:00:02.475Z,10.60
2018-04-12T18:02:32.439Z,9.53
2018-04-12T18:05:02.970Z,9.80
2018-04-12T18:07:33.285Z,9.17
2018-04-12T18:10:04.785Z,9.53
2018-04-12T18:12:35.147Z,9.93
2018-04-12T18:15:06.258Z,10.73
2018-04-12T18:17:36.249Z,10.70
2018-04-12T18:20:07.125Z,9.50
2018-04-12T18:22:37.431Z,9.73
2018-04-12T18:25:08.548Z,8.53
2018-04-12T18:27:39.723Z,11.63
2018-04-12T18:30:11.573Z,8.17
2018-04-12T18:32:41.622Z,9.17
2018-04-12T18:35:11.572Z,12.63
2018-04-12T18:37:41.564Z,9.33
2018-04-12T18:40:12.622Z,10.83
2018-04-12T18:42:44.281Z,9.63
2018-04-12T18:45:16.351Z,10.87
2018-04-12T18:49:06.438Z,15.80
2018-04-12T18:51:36.461Z,11.13
2018-04-12T18:54:07.487Z,11.20
2018-04-12T18:56:38.570Z,11.50
2018-04-12T18:59:08.816Z,9.47
2018-04-12T19:01:40.020Z,11.40
2018-04-12T19:04:10.619Z,12.07
2018-04-12T19:06:41.647Z,16.83
2018-04-12T19:09:12.254Z,14.13
2018-04-12T19:11:42.690Z,12.83
2018-04-12T19:14:12.686Z,13.70
2018-04-12T19:16:42.849Z,13.03
2018-04-12T19:19:14.181Z,11.37
2018-04-12T19:21:44.645Z,10.37
2018-04-12T19:24:15.534Z,15.30
2018-04-12T19:26:45.996Z,13.20
2018-04-12T19:29:17.421Z,11.93
2018-04-12T19:31:47.427Z,10.73
2018-04-12T19:34:17.989Z,11.73
2018-04-12T19:36:48.511Z,11.83
2018-04-12T19:39:18.533Z,9.77
2018-04-12T19:41:49.614Z,10.43
2018-04-12T19:44:19.657Z,11.83
2018-04-12T19:46:52.679Z,11.90
2018-04-12T19:49:23.315Z,11.07
2018-04-12T19:51:54.276Z,12.10
2018-04-12T19:54:25.658Z,11.50
2018-04-12T19:56:55.811Z,12.00
2018-04-12T19:59:26.100Z,13.63
2018-04-12T20:01:56.477Z,9.77
2018-04-12T20:04:27.252Z,11.47
2018-04-12T20:06:58.411Z,11.40
2018-04-12T20:09:28.735Z,10.77
2018-04-12T20:11:59.014Z,10.20
2018-04-12T20:14:29.831Z,9.73
2018-04-12T20:16:59.896Z,13.67
2018-04-12T20:19:30.197Z,11.13
2018-04-12T20:22:01.867Z,10.90
2018-04-12T20:24:33.176Z,10.07
2018-04-12T20:27:03.432Z,10.87
2018-04-12T20:29:34.611Z,12.40
2018-04-12T20:32:04.839Z,12.27
2018-04-12T20:34:36.991Z,12.33
2018-04-12T20:37:07.670Z,10.33
2018-04-12T20:39:38.911Z,11.10
2018-04-12T20:42:09.103Z,10.20
2018-04-12T20:44:40.503Z,11.90
2018-04-12T20:47:11.291Z,13.00
2018-04-12T20:49:41.636Z,10.27
2018-04-12T20:52:12.672Z,13.63
2018-04-12T20:54:42.613Z,11.57
2018-04-12T20:57:13.799Z,12.20
2018-04-12T20:59:43.986Z,10.13
2018-04-12T21:02:14.779Z,10.33
2018-04-12T21:04:45.326Z,9.70
2018-04-12T21:07:15.375Z,10.83
2018-04-12T21:09:45.936Z,10.83
2018-04-12T21:12:16.381Z,10.40
2018-04-12T21:14:47.135Z,11.00
2018-04-12T21:17:18.336Z,10.10
2018-04-12T21:19:51.583Z,11.57
2018-04-12T21:22:21.942Z,10.53
2018-04-12T21:24:52.909Z,10.67
2018-04-12T21:27:23.100Z,12.20
2018-04-12T21:29:53.437Z,13.83
2018-04-12T21:32:24.860Z,11.27
2018-04-12T21:34:54.953Z,11.33
2018-04-12T21:37:25.964Z,12.70
2018-04-12T21:39:56.943Z,11.13
2018-04-12T21:42:27.778Z,12.03
2018-04-12T21:44:58.367Z,14.57
2018-04-12T21:47:28.481Z,13.13
2018-04-12T21:49:59.019Z,11.10
2018-04-12T21:52:29.902Z,11.07
2018-04-12T21:54:59.984Z,11.17
2018-04-12T21:57:30.852Z,13.43
2018-04-12T22:00:04.047Z,12.43
2018-04-12T22:02:34.957Z,11.70
2018-04-12T22:05:06.784Z,17.83
2018-04-12T22:07:37.016Z,12.10
2018-04-12T22:10:07.773Z,13.40
2018-04-12T22:12:38.800Z,13.97
2018-04-12T22:15:09.709Z,13.53
2018-04-12T22:17:39.901Z,13.80
2018-04-12T22:20:10.585Z,11.40
2018-04-12T22:22:40.866Z,13.07
2018-04-12T22:25:11.807Z,12.03
2018-04-12T22:27:43.002Z,12.27
2018-04-12T22:30:13.082Z,12.43
2018-04-12T22:32:43.296Z,12.53
2018-04-12T22:35:14.841Z,11.67
2018-04-12T22:37:45.733Z,14.20
2018-04-12T22:40:15.953Z,12.50
2018-04-12T22:42:46.767Z,13.23
2018-04-12T22:45:17.560Z,13.27
2018-04-12T22:47:48.044Z,12.47
2018-04-12T22:50:18.960Z,13.73
2018-04-12T22:52:49.150Z,14.67
2018-04-12T22:55:20.235Z,12.87
2018-04-12T22:57:50.762Z,14.67
2018-04-12T23:00:21.133Z,13.37
2018-04-12T23:02:52.072Z,12.13
2018-04-12T23:05:23.253Z,13.13
2018-04-12T23:07:53.821Z,13.33
2018-04-12T23:10:25.305Z,14.03
2018-04-12T23:13:10.139Z,12.60
2018-04-12T23:15:41.257Z,15.93
2018-04-12T23:18:11.732Z,14.23
2018-04-12T23:20:41.948Z,16.50
2018-04-12T23:23:12.088Z,15.57
2018-04-12T23:25:42.526Z,15.07
2018-04-12T23:28:13.366Z,15.77
2018-04-12T23:30:44.301Z,13.93
2018-04-12T23:33:15.530Z,14.87
2018-04-12T23:35:45.872Z,14.00
2018-04-12T23:38:16.740Z,14.80
2018-04-12T23:40:46.999Z,15.97
2018-04-12T23:43:17.038Z,15.63
2018-04-12T23:45:47.502Z,14.63
2018-04-12T23:48:17.521Z,13.20
2018-04-12T23:50:47.693Z,13.40
2018-04-12T23:53:18.105Z,20.03
2018-04-12T23:55:49.148Z,19.30
2018-04-12T23:58:19.313Z,15.30
